sensor_id;sensor_type;location;lat;lon;timestamp;temperature;humidity
13596;DHT22;6868;52.544;13.416;2023-05-07T00:10:46;8.70;99.90
13596;DHT22;6868;52.544;13.416;2023-05-07T00:16:18;8.80;99.90
13596;DHT22;6868;52.544;13.416;2023-05-07T00:19:01;8.80;99.90
13596;DHT22;6868;52.544;13.416;2023-05-07T00:21:38;8.80;99.90
13596;DHT22;6868;52.544;13.416;2023-05-07T00:24:21;8.80;99.90
13596;DHT22;6868;52.544;13.416;2023-05-07T00:26:57;8.80;99.90
13596;DHT22;6868;52.544;13.416;2023-05-07T00:32:32;8.70;99.90
13596;DHT22;6868;52.544;13.416;2023-05-07T00:35:14;8.70;99.90
13596;DHT22;6868;52.544;13.416;2023-05-07T00:37:59;8.70;99.90
13596;DHT22;6868;52.544;13.416;2023-05-07T00:40:57;8.80;99.90
13596;DHT22;6868;52.544;13.416;2023-05-07T00:46:23;8.70;99.90
13596;DHT22;6868;52.544;13.416;2023-05-07T00:48:56;8.70;99.90
13596;DHT22;6868;52.544;13.416;2023-05-07T00:51:33;8.60;99.90
13596;DHT22;6868;52.544;13.416;2023-05-07T00:54:21;8.60;99.90
13596;DHT22;6868;52.544;13.416;2023-05-07T00:57:03;8.60;99.90
13596;DHT22;6868;52.544;13.416;2023-05-07T00:59:51;8.60;99.90
13596;DHT22;6868;52.544;13.416;2023-05-07T01:02:30;8.60;99.90
13596;DHT22;6868;52.544;13.416;2023-05-07T01:05:08;8.70;99.90
13596;DHT22;6868;52.544;13.416;2023-05-07T01:07:49;8.70;99.90
13596;DHT22;6868;52.544;13.416;2023-05-07T01:13:21;8.70;99.90
13596;DHT22;6868;52.544;13.416;2023-05-07T01:18:06;8.70;99.90
13596;DHT22;6868;52.544;13.416;2023-05-07T01:18:52;8.70;99.90
13596;DHT22;6868;52.544;13.416;2023-05-07T01:21:32;8.70;99.90
13596;DHT22;6868;52.544;13.416;2023-05-07T01:24:02;8.60;99.90
13596;DHT22;6868;52.544;13.416;2023-05-07T01:26:43;8.70;99.90
13596;DHT22;6868;52.544;13.416;2023-05-07T01:29:31;8.60;99.90
13596;DHT22;6868;52.544;13.416;2023-05-07T01:31:59;8.70;99.90
13596;DHT22;6868;52.544;13.416;2023-05-07T01:34:28;8.70;99.90
13596;DHT22;6868;52.544;13.416;2023-05-07T01:37:01;8.80;99.90
13596;DHT22;6868;52.544;13.416;2023-05-07T01:39:42;8.80;99.90
13596;DHT22;6868;52.544;13.416;2023-05-07T01:42:18;8.70;99.90
13596;DHT22;6868;52.544;13.416;2023-05-07T01:48:02;8.70;99.90
13596;DHT22;6868;52.544;13.416;2023-05-07T01:50:47;8.70;99.90
13596;DHT22;6868;52.544;13.416;2023-05-07T01:53:31;8.70;99.90
13596;DHT22;6868;52.544;13.416;2023-05-07T01:56:11;8.70;99.90
13596;DHT22;6868;52.544;13.416;2023-05-07T01:58:55;8.70;99.90
13596;DHT22;6868;52.544;13.416;2023-05-07T02:01:32;8.70;99.90
13596;DHT22;6868;52.544;13.416;2023-05-07T02:04:04;8.70;99.90
13596;DHT22;6868;52.544;13.416;2023-05-07T02:06:59;8.70;99.90
13596;DHT22;6868;52.544;13.416;2023-05-07T02:09:36;8.70;99.90
13596;DHT22;6868;52.544;13.416;2023-05-07T02:12:14;8.60;99.90
13596;DHT22;6868;52.544;13.416;2023-05-07T02:14:42;8.60;99.90
13596;DHT22;6868;52.544;13.416;2023-05-07T02:17:20;8.60;99.90
13596;DHT22;6868;52.544;13.416;2023-05-07T02:20:01;8.60;99.90
13596;DHT22;6868;52.544;13.416;2023-05-07T02:22:40;8.70;99.90
13596;DHT22;6868;52.544;13.416;2023-05-07T02:28:27;8.60;99.90
13596;DHT22;6868;52.544;13.416;2023-05-07T02:31:05;8.60;99.90
13596;DHT22;6868;52.544;13.416;2023-05-07T02:33:35;8.60;99.90
13596;DHT22;6868;52.544;13.416;2023-05-07T02:36:10;8.60;99.90
13596;DHT22;6868;52.544;13.416;2023-05-07T02:39:03;8.70;99.90
13596;DHT22;6868;52.544;13.416;2023-05-07T02:41:42;8.60;99.90
13596;DHT22;6868;52.544;13.416;2023-05-07T02:47:44;8.60;99.90
13596;DHT22;6868;52.544;13.416;2023-05-07T02:50:20;8.60;99.90
13596;DHT22;6868;52.544;13.416;2023-05-07T02:53:19;8.60;99.90
13596;DHT22;6868;52.544;13.416;2023-05-07T02:56:38;8.60;99.90
13596;DHT22;6868;52.544;13.416;2023-05-07T02:59:08;8.60;99.90
13596;DHT22;6868;52.544;13.416;2023-05-07T03:01:56;8.70;99.90
13596;DHT22;6868;52.544;13.416;2023-05-07T03:04:50;8.70;99.90
13596;DHT22;6868;52.544;13.416;2023-05-07T03:07:35;8.70;99.90
13596;DHT22;6868;52.544;13.416;2023-05-07T03:10:16;8.60;99.90
13596;DHT22;6868;52.544;13.416;2023-05-07T03:12:46;8.70;99.90
13596;DHT22;6868;52.544;13.416;2023-05-07T03:15:37;8.70;99.90
13596;DHT22;6868;52.544;13.416;2023-05-07T03:18:18;8.70;99.90
13596;DHT22;6868;52.544;13.416;2023-05-07T03:21:08;8.70;99.90
13596;DHT22;6868;52.544;13.416;2023-05-07T03:26:54;8.60;99.90
13596;DHT22;6868;52.544;13.416;2023-05-07T03:30:01;8.50;99.90
13596;DHT22;6868;52.544;13.416;2023-05-07T03:32:44;8.60;99.90
13596;DHT22;6868;52.544;13.416;2023-05-07T03:35:23;8.50;99.90
13596;DHT22;6868;52.544;13.416;2023-05-07T03:38:11;8.60;99.90
13596;DHT22;6868;52.544;13.416;2023-05-07T03:40:59;8.60;99.90
13596;DHT22;6868;52.544;13.416;2023-05-07T03:43:42;8.60;99.90
13596;DHT22;6868;52.544;13.416;2023-05-07T03:46:09;8.60;99.90
13596;DHT22;6868;52.544;13.416;2023-05-07T03:48:36;8.60;99.90
13596;DHT22;6868;52.544;13.416;2023-05-07T03:51:03;8.60;99.90
13596;DHT22;6868;52.544;13.416;2023-05-07T03:53:31;8.50;99.90
13596;DHT22;6868;52.544;13.416;2023-05-07T03:55:58;8.50;99.90
13596;DHT22;6868;52.544;13.416;2023-05-07T03:58:25;8.50;99.90
13596;DHT22;6868;52.544;13.416;2023-05-07T04:00:52;8.50;99.90
13596;DHT22;6868;52.544;13.416;2023-05-07T04:03:19;8.50;99.90
13596;DHT22;6868;52.544;13.416;2023-05-07T04:05:45;8.50;99.90
13596;DHT22;6868;52.544;13.416;2023-05-07T04:08:12;8.50;99.90
13596;DHT22;6868;52.544;13.416;2023-05-07T04:10:40;8.40;99.90
13596;DHT22;6868;52.544;13.416;2023-05-07T04:13:07;8.40;99.90
13596;DHT22;6868;52.544;13.416;2023-05-07T04:15:34;8.50;99.90
13596;DHT22;6868;52.544;13.416;2023-05-07T04:18:02;8.50;99.90
13596;DHT22;6868;52.544;13.416;2023-05-07T04:20:28;8.50;99.90
13596;DHT22;6868;52.544;13.416;2023-05-07T04:22:56;8.50;99.90
13596;DHT22;6868;52.544;13.416;2023-05-07T04:25:22;8.50;99.90
13596;DHT22;6868;52.544;13.416;2023-05-07T04:27:53;8.50;99.90
13596;DHT22;6868;52.544;13.416;2023-05-07T04:30:20;8.50;99.90
13596;DHT22;6868;52.544;13.416;2023-05-07T04:32:47;8.50;99.90
13596;DHT22;6868;52.544;13.416;2023-05-07T04:35:14;8.50;99.90
13596;DHT22;6868;52.544;13.416;2023-05-07T04:37:41;8.50;99.90
13596;DHT22;6868;52.544;13.416;2023-05-07T04:40:08;8.50;99.90
13596;DHT22;6868;52.544;13.416;2023-05-07T04:42:35;8.50;99.90
13596;DHT22;6868;52.544;13.416;2023-05-07T04:45:03;8.60;99.90
13596;DHT22;6868;52.544;13.416;2023-05-07T04:47:30;8.50;99.90
13596;DHT22;6868;52.544;13.416;2023-05-07T04:49:58;8.60;99.90
13596;DHT22;6868;52.544;13.416;2023-05-07T04:52:24;8.60;99.90
13596;DHT22;6868;52.544;13.416;2023-05-07T04:54:52;8.60;99.90
13596;DHT22;6868;52.544;13.416;2023-05-07T04:57:18;8.60;99.90
13596;DHT22;6868;52.544;13.416;2023-05-07T04:59:45;8.70;99.90
13596;DHT22;6868;52.544;13.416;2023-05-07T05:02:13;8.70;99.90
13596;DHT22;6868;52.544;13.416;2023-05-07T05:04:40;8.70;99.90
13596;DHT22;6868;52.544;13.416;2023-05-07T05:07:07;8.70;99.90
13596;DHT22;6868;52.544;13.416;2023-05-07T05:09:33;8.80;99.90
13596;DHT22;6868;52.544;13.416;2023-05-07T05:12:00;8.90;99.90
13596;DHT22;6868;52.544;13.416;2023-05-07T05:14:27;8.90;99.90
13596;DHT22;6868;52.544;13.416;2023-05-07T05:16:53;9.00;99.90
13596;DHT22;6868;52.544;13.416;2023-05-07T05:19:22;9.20;99.90
13596;DHT22;6868;52.544;13.416;2023-05-07T05:21:48;9.30;99.90
13596;DHT22;6868;52.544;13.416;2023-05-07T05:24:15;9.30;99.90
13596;DHT22;6868;52.544;13.416;2023-05-07T05:26:42;9.40;99.90
13596;DHT22;6868;52.544;13.416;2023-05-07T05:29:08;9.30;99.90
13596;DHT22;6868;52.544;13.416;2023-05-07T05:31:35;9.20;99.90
13596;DHT22;6868;52.544;13.416;2023-05-07T05:34:02;9.00;99.90
13596;DHT22;6868;52.544;13.416;2023-05-07T05:36:31;8.90;99.90
13596;DHT22;6868;52.544;13.416;2023-05-07T05:38:57;9.10;99.90
13596;DHT22;6868;52.544;13.416;2023-05-07T05:41:24;9.00;99.90
13596;DHT22;6868;52.544;13.416;2023-05-07T05:43:51;9.00;99.90
13596;DHT22;6868;52.544;13.416;2023-05-07T05:46:18;9.00;99.90
13596;DHT22;6868;52.544;13.416;2023-05-07T05:48:44;9.10;99.90
13596;DHT22;6868;52.544;13.416;2023-05-07T05:51:11;9.20;99.90
13596;DHT22;6868;52.544;13.416;2023-05-07T05:53:39;9.30;99.90
13596;DHT22;6868;52.544;13.416;2023-05-07T05:56:06;9.40;99.90
13596;DHT22;6868;52.544;13.416;2023-05-07T05:58:33;9.70;99.90
13596;DHT22;6868;52.544;13.416;2023-05-07T06:01:00;9.80;99.90
13596;DHT22;6868;52.544;13.416;2023-05-07T06:03:27;9.90;99.90
13596;DHT22;6868;52.544;13.416;2023-05-07T06:05:54;10.10;99.90
13596;DHT22;6868;52.544;13.416;2023-05-07T06:08:21;10.00;99.90
13596;DHT22;6868;52.544;13.416;2023-05-07T06:10:49;9.70;99.90
13596;DHT22;6868;52.544;13.416;2023-05-07T06:13:16;9.70;99.90
13596;DHT22;6868;52.544;13.416;2023-05-07T06:15:43;9.80;99.90
13596;DHT22;6868;52.544;13.416;2023-05-07T06:18:09;9.80;99.90
13596;DHT22;6868;52.544;13.416;2023-05-07T06:20:36;9.70;99.90
13596;DHT22;6868;52.544;13.416;2023-05-07T06:23:03;9.80;99.90
13596;DHT22;6868;52.544;13.416;2023-05-07T06:25:30;9.80;99.90
13596;DHT22;6868;52.544;13.416;2023-05-07T06:28:00;9.90;99.90
13596;DHT22;6868;52.544;13.416;2023-05-07T06:30:26;10.00;99.90
13596;DHT22;6868;52.544;13.416;2023-05-07T06:32:53;10.00;99.90
13596;DHT22;6868;52.544;13.416;2023-05-07T06:35:20;10.00;99.90
13596;DHT22;6868;52.544;13.416;2023-05-07T06:37:46;10.00;99.90
13596;DHT22;6868;52.544;13.416;2023-05-07T06:40:13;10.00;99.90
13596;DHT22;6868;52.544;13.416;2023-05-07T06:42:40;10.10;99.90
13596;DHT22;6868;52.544;13.416;2023-05-07T06:45:09;10.20;99.90
13596;DHT22;6868;52.544;13.416;2023-05-07T06:47:36;10.10;99.90
13596;DHT22;6868;52.544;13.416;2023-05-07T06:50:03;10.00;99.90
13596;DHT22;6868;52.544;13.416;2023-05-07T06:52:30;10.10;99.90
13596;DHT22;6868;52.544;13.416;2023-05-07T06:54:57;10.10;99.90
13596;DHT22;6868;52.544;13.416;2023-05-07T06:57:24;10.60;99.90
13596;DHT22;6868;52.544;13.416;2023-05-07T06:59:50;11.50;99.90
13596;DHT22;6868;52.544;13.416;2023-05-07T07:02:18;12.10;99.90
13596;DHT22;6868;52.544;13.416;2023-05-07T07:04:45;12.00;99.90
13596;DHT22;6868;52.544;13.416;2023-05-07T07:07:12;11.60;99.90
13596;DHT22;6868;52.544;13.416;2023-05-07T07:09:39;12.10;99.90
13596;DHT22;6868;52.544;13.416;2023-05-07T07:12:05;12.10;99.90
13596;DHT22;6868;52.544;13.416;2023-05-07T23:37:01;8.80;99.90
13596;DHT22;6868;52.544;13.416;2023-05-07T23:42:00;8.70;99.90
13596;DHT22;6868;52.544;13.416;2023-05-07T23:44:30;8.70;99.90
13596;DHT22;6868;52.544;13.416;2023-05-07T23:47:02;8.70;99.90
13596;DHT22;6868;52.544;13.416;2023-05-07T23:49:30;8.70;99.90
13596;DHT22;6868;52.544;13.416;2023-05-07T23:52:02;8.60;99.90
13596;DHT22;6868;52.544;13.416;2023-05-07T23:57:04;8.60;99.90
13596;DHT22;6868;52.544;13.416;2023-05-07T23:59:36;8.50;99.90
